sensor_id;sensor_type;location;lat;lon;timestamp;temperature;humidity
14101;DHT22;7127;49.372;8.166;2023-12-20T00:01:01;10.80;58.50
14101;DHT22;7127;49.372;8.166;2023-12-20T00:03:28;10.80;58.50
14101;DHT22;7127;49.372;8.166;2023-12-20T00:05:54;10.80;58.50
14101;DHT22;7127;49.372;8.166;2023-12-20T00:08:21;10.80;58.50
14101;DHT22;7127;49.372;8.166;2023-12-20T00:10:50;10.80;58.50
14101;DHT22;7127;49.372;8.166;2023-12-20T00:13:16;10.80;58.50
14101;DHT22;7127;49.372;8.166;2023-12-20T00:15:43;10.70;58.40
14101;DHT22;7127;49.372;8.166;2023-12-20T00:18:10;10.80;58.40
14101;DHT22;7127;49.372;8.166;2023-12-20T00:20:37;10.70;58.40
14101;DHT22;7127;49.372;8.166;2023-12-20T00:23:03;10.70;58.40
14101;DHT22;7127;49.372;8.166;2023-12-20T00:25:30;10.80;58.50
14101;DHT22;7127;49.372;8.166;2023-12-20T00:27:58;10.70;58.40
14101;DHT22;7127;49.372;8.166;2023-12-20T00:30:25;10.70;58.40
14101;DHT22;7127;49.372;8.166;2023-12-20T00:32:52;10.70;58.40
14101;DHT22;7127;49.372;8.166;2023-12-20T00:35:19;10.70;58.40
14101;DHT22;7127;49.372;8.166;2023-12-20T00:37:46;10.70;58.30
14101;DHT22;7127;49.372;8.166;2023-12-20T00:40:13;10.70;58.30
14101;DHT22;7127;49.372;8.166;2023-12-20T00:42:40;10.70;58.20
14101;DHT22;7127;49.372;8.166;2023-12-20T00:45:09;10.70;58.20
14101;DHT22;7127;49.372;8.166;2023-12-20T00:47:35;10.70;58.30
14101;DHT22;7127;49.372;8.166;2023-12-20T00:50:02;10.70;58.40
14101;DHT22;7127;49.372;8.166;2023-12-20T00:52:29;10.70;58.40
14101;DHT22;7127;49.372;8.166;2023-12-20T00:54:56;10.70;58.30
14101;DHT22;7127;49.372;8.166;2023-12-20T00:57:23;10.70;58.30
14101;DHT22;7127;49.372;8.166;2023-12-20T00:59:50;10.70;58.30
14101;DHT22;7127;49.372;8.166;2023-12-20T01:02:19;10.60;58.20
14101;DHT22;7127;49.372;8.166;2023-12-20T01:04:46;10.60;58.20
14101;DHT22;7127;49.372;8.166;2023-12-20T01:07:12;10.60;58.30
14101;DHT22;7127;49.372;8.166;2023-12-20T01:09:39;10.60;58.30
14101;DHT22;7127;49.372;8.166;2023-12-20T01:12:06;10.60;58.20
14101;DHT22;7127;49.372;8.166;2023-12-20T01:14:33;10.60;58.80
14101;DHT22;7127;49.372;8.166;2023-12-20T01:17:00;10.60;58.00
14101;DHT22;7127;49.372;8.166;2023-12-20T01:19:28;10.60;58.00
14101;DHT22;7127;49.372;8.166;2023-12-20T01:21:55;10.60;58.00
14101;DHT22;7127;49.372;8.166;2023-12-20T01:24:22;10.50;58.00
14101;DHT22;7127;49.372;8.166;2023-12-20T01:26:48;10.50;58.00
14101;DHT22;7127;49.372;8.166;2023-12-20T01:29:15;10.50;58.10
14101;DHT22;7127;49.372;8.166;2023-12-20T01:31:42;10.50;58.10
14101;DHT22;7127;49.372;8.166;2023-12-20T01:34:09;10.50;58.20
14101;DHT22;7127;49.372;8.166;2023-12-20T01:36:37;10.50;58.10
14101;DHT22;7127;49.372;8.166;2023-12-20T01:39:04;10.50;58.10
14101;DHT22;7127;49.372;8.166;2023-12-20T01:41:30;10.50;58.00
14101;DHT22;7127;49.372;8.166;2023-12-20T01:43:57;10.50;58.00
14101;DHT22;7127;49.372;8.166;2023-12-20T01:46:24;10.50;57.90
14101;DHT22;7127;49.372;8.166;2023-12-20T01:48:52;10.50;58.00
14101;DHT22;7127;49.372;8.166;2023-12-20T01:51:19;10.50;57.90
14101;DHT22;7127;49.372;8.166;2023-12-20T01:53:48;10.50;57.90
14101;DHT22;7127;49.372;8.166;2023-12-20T01:56:16;10.50;57.90
14101;DHT22;7127;49.372;8.166;2023-12-20T01:58:44;10.40;57.90
14101;DHT22;7127;49.372;8.166;2023-12-20T02:01:11;10.40;57.90
14101;DHT22;7127;49.372;8.166;2023-12-20T02:03:39;10.40;57.90
14101;DHT22;7127;49.372;8.166;2023-12-20T02:06:07;10.40;57.80
14101;DHT22;7127;49.372;8.166;2023-12-20T02:08:34;10.30;57.80
14101;DHT22;7127;49.372;8.166;2023-12-20T02:11:02;10.30;58.00
14101;DHT22;7127;49.372;8.166;2023-12-20T02:13:30;10.30;58.10
14101;DHT22;7127;49.372;8.166;2023-12-20T02:15:57;10.30;58.10
14101;DHT22;7127;49.372;8.166;2023-12-20T02:18:24;10.30;58.10
14101;DHT22;7127;49.372;8.166;2023-12-20T02:20:51;10.20;58.00
14101;DHT22;7127;49.372;8.166;2023-12-20T02:23:19;10.20;58.00
14101;DHT22;7127;49.372;8.166;2023-12-20T02:25:47;10.30;58.10
14101;DHT22;7127;49.372;8.166;2023-12-20T02:28:14;10.20;58.00
14101;DHT22;7127;49.372;8.166;2023-12-20T02:30:41;10.20;58.10
14101;DHT22;7127;49.372;8.166;2023-12-20T02:33:08;10.20;58.00
14101;DHT22;7127;49.372;8.166;2023-12-20T02:35:36;10.20;58.10
14101;DHT22;7127;49.372;8.166;2023-12-20T02:38:03;10.20;58.10
14101;DHT22;7127;49.372;8.166;2023-12-20T02:40:32;10.20;58.40
14101;DHT22;7127;49.372;8.166;2023-12-20T02:42:58;10.20;58.20
14101;DHT22;7127;49.372;8.166;2023-12-20T02:45:26;10.10;58.30
14101;DHT22;7127;49.372;8.166;2023-12-20T02:47:53;10.10;58.30
14101;DHT22;7127;49.372;8.166;2023-12-20T02:50:19;10.10;58.40
14101;DHT22;7127;49.372;8.166;2023-12-20T02:52:46;10.10;58.30
14101;DHT22;7127;49.372;8.166;2023-12-20T02:55:13;10.10;58.40
14101;DHT22;7127;49.372;8.166;2023-12-20T02:57:41;10.10;58.40
14101;DHT22;7127;49.372;8.166;2023-12-20T03:00:09;10.10;58.50
14101;DHT22;7127;49.372;8.166;2023-12-20T03:02:36;10.00;58.30
14101;DHT22;7127;49.372;8.166;2023-12-20T03:05:03;10.10;58.50
14101;DHT22;7127;49.372;8.166;2023-12-20T03:07:31;10.00;58.30
14101;DHT22;7127;49.372;8.166;2023-12-20T03:09:57;10.00;58.50
14101;DHT22;7127;49.372;8.166;2023-12-20T03:12:24;10.00;58.50
14101;DHT22;7127;49.372;8.166;2023-12-20T03:14:52;10.00;58.60
14101;DHT22;7127;49.372;8.166;2023-12-20T03:17:19;10.00;58.50
14101;DHT22;7127;49.372;8.166;2023-12-20T03:19:46;10.00;58.60
14101;DHT22;7127;49.372;8.166;2023-12-20T03:22:13;10.00;58.60
14101;DHT22;7127;49.372;8.166;2023-12-20T03:24:40;10.00;58.60
14101;DHT22;7127;49.372;8.166;2023-12-20T03:27:06;10.00;58.70
14101;DHT22;7127;49.372;8.166;2023-12-20T03:29:33;10.00;58.80
14101;DHT22;7127;49.372;8.166;2023-12-20T03:32:01;10.00;58.90
14101;DHT22;7127;49.372;8.166;2023-12-20T03:34:28;10.00;58.90
14101;DHT22;7127;49.372;8.166;2023-12-20T03:36:55;10.00;59.10
14101;DHT22;7127;49.372;8.166;2023-12-20T03:39:22;10.00;59.10
14101;DHT22;7127;49.372;8.166;2023-12-20T03:41:49;10.00;59.10
14101;DHT22;7127;49.372;8.166;2023-12-20T03:44:15;10.00;59.10
14101;DHT22;7127;49.372;8.166;2023-12-20T03:46:42;10.00;59.10
14101;DHT22;7127;49.372;8.166;2023-12-20T03:49:12;9.90;60.10
14101;DHT22;7127;49.372;8.166;2023-12-20T03:51:39;10.00;59.30
14101;DHT22;7127;49.372;8.166;2023-12-20T03:54:07;10.00;59.30
14101;DHT22;7127;49.372;8.166;2023-12-20T03:56:34;10.00;59.30
14101;DHT22;7127;49.372;8.166;2023-12-20T03:59:00;10.00;59.30
14101;DHT22;7127;49.372;8.166;2023-12-20T04:01:27;10.00;59.20
14101;DHT22;7127;49.372;8.166;2023-12-20T04:03:54;10.00;59.30
14101;DHT22;7127;49.372;8.166;2023-12-20T04:06:22;10.00;59.20
14101;DHT22;7127;49.372;8.166;2023-12-20T04:08:49;10.00;59.50
14101;DHT22;7127;49.372;8.166;2023-12-20T04:11:16;10.00;59.30
14101;DHT22;7127;49.372;8.166;2023-12-20T04:13:42;10.00;59.40
14101;DHT22;7127;49.372;8.166;2023-12-20T04:16:09;10.10;59.50
14101;DHT22;7127;49.372;8.166;2023-12-20T04:18:36;10.00;59.50
14101;DHT22;7127;49.372;8.166;2023-12-20T04:21:03;10.10;59.50
14101;DHT22;7127;49.372;8.166;2023-12-20T04:23:31;10.10;59.60
14101;DHT22;7127;49.372;8.166;2023-12-20T04:25:58;10.10;59.60
14101;DHT22;7127;49.372;8.166;2023-12-20T04:28:25;10.00;59.70
14101;DHT22;7127;49.372;8.166;2023-12-20T04:30:51;10.00;59.70
14101;DHT22;7127;49.372;8.166;2023-12-20T04:33:18;10.00;59.50
14101;DHT22;7127;49.372;8.166;2023-12-20T04:35:45;10.00;59.60
14101;DHT22;7127;49.372;8.166;2023-12-20T04:38:12;10.00;59.50
14101;DHT22;7127;49.372;8.166;2023-12-20T04:40:40;10.00;59.60
14101;DHT22;7127;49.372;8.166;2023-12-20T04:43:07;10.00;59.60
14101;DHT22;7127;49.372;8.166;2023-12-20T04:45:34;9.90;60.70
14101;DHT22;7127;49.372;8.166;2023-12-20T04:48:01;9.90;60.60
14101;DHT22;7127;49.372;8.166;2023-12-20T04:50:28;9.90;60.50
14101;DHT22;7127;49.372;8.166;2023-12-20T04:52:55;9.90;60.60
14101;DHT22;7127;49.372;8.166;2023-12-20T04:55:22;9.90;60.40
14101;DHT22;7127;49.372;8.166;2023-12-20T04:57:50;9.90;60.40
14101;DHT22;7127;49.372;8.166;2023-12-20T05:00:17;9.90;60.40
14101;DHT22;7127;49.372;8.166;2023-12-20T05:02:44;9.90;60.40
14101;DHT22;7127;49.372;8.166;2023-12-20T05:05:11;9.90;60.60
14101;DHT22;7127;49.372;8.166;2023-12-20T05:07:38;9.80;60.60
14101;DHT22;7127;49.372;8.166;2023-12-20T05:10:05;9.90;60.70
14101;DHT22;7127;49.372;8.166;2023-12-20T05:12:33;9.90;60.80
14101;DHT22;7127;49.372;8.166;2023-12-20T05:15:02;10.00;59.80
14101;DHT22;7127;49.372;8.166;2023-12-20T05:17:29;10.00;60.00
14101;DHT22;7127;49.372;8.166;2023-12-20T05:19:56;10.00;59.90
14101;DHT22;7127;49.372;8.166;2023-12-20T05:22:23;10.00;59.80
14101;DHT22;7127;49.372;8.166;2023-12-20T05:24:49;10.00;59.70
14101;DHT22;7127;49.372;8.166;2023-12-20T05:27:16;10.00;59.80
14101;DHT22;7127;49.372;8.166;2023-12-20T05:29:43;10.00;59.50
14101;DHT22;7127;49.372;8.166;2023-12-20T05:32:11;10.00;59.70
14101;DHT22;7127;49.372;8.166;2023-12-20T05:34:38;10.00;59.50
14101;DHT22;7127;49.372;8.166;2023-12-20T05:37:05;10.00;59.50
14101;DHT22;7127;49.372;8.166;2023-12-20T05:39:31;10.00;59.30
14101;DHT22;7127;49.372;8.166;2023-12-20T05:41:58;10.10;59.60
14101;DHT22;7127;49.372;8.166;2023-12-20T05:44:25;10.00;59.30
14101;DHT22;7127;49.372;8.166;2023-12-20T05:46:52;9.90;60.20
14101;DHT22;7127;49.372;8.166;2023-12-20T05:49:20;10.00;59.30
14101;DHT22;7127;49.372;8.166;2023-12-20T05:51:47;9.90;60.20
14101;DHT22;7127;49.372;8.166;2023-12-20T05:54:14;9.90;60.40
14101;DHT22;7127;49.372;8.166;2023-12-20T05:56:40;9.90;60.60
14101;DHT22;7127;49.372;8.166;2023-12-20T05:59:07;9.90;60.60
14101;DHT22;7127;49.372;8.166;2023-12-20T06:01:34;9.90;60.90
14101;DHT22;7127;49.372;8.166;2023-12-20T06:04:01;9.90;60.80
14101;DHT22;7127;49.372;8.166;2023-12-20T06:06:30;9.90;60.90
14101;DHT22;7127;49.372;8.166;2023-12-20T06:08:57;10.00;59.90
14101;DHT22;7127;49.372;8.166;2023-12-20T06:11:23;10.00;59.90
14101;DHT22;7127;49.372;8.166;2023-12-20T06:13:50;10.00;59.90
14101;DHT22;7127;49.372;8.166;2023-12-20T06:16:18;10.10;59.90
14101;DHT22;7127;49.372;8.166;2023-12-20T06:18:45;10.10;59.90
14101;DHT22;7127;49.372;8.166;2023-12-20T06:21:12;10.10;59.80
14101;DHT22;7127;49.372;8.166;2023-12-20T06:23:41;10.20;59.80
14101;DHT22;7127;49.372;8.166;2023-12-20T06:26:08;10.20;59.80
14101;DHT22;7127;49.372;8.166;2023-12-20T06:28:34;10.30;59.70
14101;DHT22;7127;49.372;8.166;2023-12-20T06:31:01;10.30;59.40
14101;DHT22;7127;49.372;8.166;2023-12-20T06:33:28;10.30;59.20
14101;DHT22;7127;49.372;8.166;2023-12-20T06:35:56;10.30;59.00
14101;DHT22;7127;49.372;8.166;2023-12-20T06:38:23;10.30;58.90
14101;DHT22;7127;49.372;8.166;2023-12-20T06:40:51;10.30;58.80
14101;DHT22;7127;49.372;8.166;2023-12-20T06:43:18;10.30;58.70
14101;DHT22;7127;49.372;8.166;2023-12-20T06:45:45;10.20;58.60
14101;DHT22;7127;49.372;8.166;2023-12-20T06:48:11;10.20;58.50
14101;DHT22;7127;49.372;8.166;2023-12-20T06:50:39;10.20;58.40
14101;DHT22;7127;49.372;8.166;2023-12-20T06:53:06;10.20;58.30
14101;DHT22;7127;49.372;8.166;2023-12-20T06:55:33;10.20;58.20
14101;DHT22;7127;49.372;8.166;2023-12-20T06:58:02;10.20;58.10
14101;DHT22;7127;49.372;8.166;2023-12-20T07:00:28;10.10;58.00
14101;DHT22;7127;49.372;8.166;2023-12-20T07:02:55;10.10;58.00
14101;DHT22;7127;49.372;8.166;2023-12-20T07:05:22;10.00;57.80
14101;DHT22;7127;49.372;8.166;2023-12-20T07:07:49;10.00;57.80
14101;DHT22;7127;49.372;8.166;2023-12-20T07:10:15;10.00;57.80
14101;DHT22;7127;49.372;8.166;2023-12-20T07:12:42;10.00;57.80
14101;DHT22;7127;49.372;8.166;2023-12-20T07:15:11;9.90;58.60
14101;DHT22;7127;49.372;8.166;2023-12-20T07:17:38;9.90;58.60
14101;DHT22;7127;49.372;8.166;2023-12-20T07:20:06;9.80;58.50
14101;DHT22;7127;49.372;8.166;2023-12-20T07:22:36;9.80;58.50
14101;DHT22;7127;49.372;8.166;2023-12-20T07:25:03;9.80;58.50
14101;DHT22;7127;49.372;8.166;2023-12-20T07:27:30;9.80;58.50
14101;DHT22;7127;49.372;8.166;2023-12-20T07:30:00;9.70;58.40
14101;DHT22;7127;49.372;8.166;2023-12-20T07:32:31;9.70;58.20
14101;DHT22;7127;49.372;8.166;2023-12-20T07:35:12;9.70;58.30
14101;DHT22;7127;49.372;8.166;2023-12-20T07:37:39;9.70;58.40
14101;DHT22;7127;49.372;8.166;2023-12-20T07:47:34;9.60;58.20
14101;DHT22;7127;49.372;8.166;2023-12-20T07:53:47;9.50;58.30
14101;DHT22;7127;49.372;8.166;2023-12-20T07:59:36;9.50;58.30
14101;DHT22;7127;49.372;8.166;2023-12-20T08:02:11;9.40;58.30
14101;DHT22;7127;49.372;8.166;2023-12-20T08:04:50;9.30;58.30
14101;DHT22;7127;49.372;8.166;2023-12-20T08:07:17;9.20;58.20
14101;DHT22;7127;49.372;8.166;2023-12-20T08:09:43;9.40;58.40
14101;DHT22;7127;49.372;8.166;2023-12-20T08:12:10;9.40;58.40
14101;DHT22;7127;49.372;8.166;2023-12-20T08:14:37;9.40;58.50
14101;DHT22;7127;49.372;8.166;2023-12-20T08:17:04;9.40;58.50
14101;DHT22;7127;49.372;8.166;2023-12-20T08:19:31;9.40;58.50
14101;DHT22;7127;49.372;8.166;2023-12-20T08:21:59;9.40;58.40
14101;DHT22;7127;49.372;8.166;2023-12-20T08:24:26;9.40;58.40
14101;DHT22;7127;49.372;8.166;2023-12-20T08:26:52;9.40;58.50
14101;DHT22;7127;49.372;8.166;2023-12-20T08:29:19;9.40;58.50
14101;DHT22;7127;49.372;8.166;2023-12-20T08:31:46;9.50;58.60
14101;DHT22;7127;49.372;8.166;2023-12-20T08:34:18;9.40;58.50
14101;DHT22;7127;49.372;8.166;2023-12-20T08:36:44;9.40;58.50
14101;DHT22;7127;49.372;8.166;2023-12-20T08:39:12;9.40;58.50
14101;DHT22;7127;49.372;8.166;2023-12-20T08:41:39;9.40;58.50
14101;DHT22;7127;49.372;8.166;2023-12-20T08:44:06;9.40;58.50
14101;DHT22;7127;49.372;8.166;2023-12-20T08:46:33;9.40;58.50
14101;DHT22;7127;49.372;8.166;2023-12-20T08:49:00;9.40;58.50
14101;DHT22;7127;49.372;8.166;2023-12-20T08:51:27;9.40;58.50
14101;DHT22;7127;49.372;8.166;2023-12-20T08:53:53;9.40;58.50
14101;DHT22;7127;49.372;8.166;2023-12-20T08:56:22;9.40;58.50
14101;DHT22;7127;49.372;8.166;2023-12-20T08:58:48;9.40;58.50
14101;DHT22;7127;49.372;8.166;2023-12-20T09:01:15;9.40;58.50
14101;DHT22;7127;49.372;8.166;2023-12-20T09:03:42;9.40;58.50
14101;DHT22;7127;49.372;8.166;2023-12-20T09:06:09;9.40;58.40
14101;DHT22;7127;49.372;8.166;2023-12-20T09:08:35;9.40;58.40
14101;DHT22;7127;49.372;8.166;2023-12-20T09:11:02;9.40;58.50
14101;DHT22;7127;49.372;8.166;2023-12-20T09:13:30;9.40;58.40
14101;DHT22;7127;49.372;8.166;2023-12-20T09:15:57;9.40;58.50
14101;DHT22;7127;49.372;8.166;2023-12-20T09:18:27;9.40;58.50
14101;DHT22;7127;49.372;8.166;2023-12-20T09:20:56;9.40;58.50
14101;DHT22;7127;49.372;8.166;2023-12-20T09:23:23;9.40;58.50
14101;DHT22;7127;49.372;8.166;2023-12-20T09:25:50;9.40;58.50
14101;DHT22;7127;49.372;8.166;2023-12-20T09:28:16;9.40;58.50
14101;DHT22;7127;49.372;8.166;2023-12-20T09:30:45;9.40;58.50
14101;DHT22;7127;49.372;8.166;2023-12-20T09:33:11;9.40;58.30
14101;DHT22;7127;49.372;8.166;2023-12-20T09:35:38;9.40;58.40
14101;DHT22;7127;49.372;8.166;2023-12-20T09:38:05;9.40;58.50
14101;DHT22;7127;49.372;8.166;2023-12-20T09:40:32;9.50;58.50
14101;DHT22;7127;49.372;8.166;2023-12-20T09:43:03;9.40;58.40
14101;DHT22;7127;49.372;8.166;2023-12-20T09:45:31;9.50;58.50
14101;DHT22;7127;49.372;8.166;2023-12-20T09:47:59;9.50;58.50
14101;DHT22;7127;49.372;8.166;2023-12-20T09:50:30;9.50;58.50
14101;DHT22;7127;49.372;8.166;2023-12-20T09:52:58;9.50;58.60
14101;DHT22;7127;49.372;8.166;2023-12-20T09:55:28;9.50;58.70
14101;DHT22;7127;49.372;8.166;2023-12-20T09:57:55;9.50;58.70
14101;DHT22;7127;49.372;8.166;2023-12-20T10:00:22;9.60;58.70
14101;DHT22;7127;49.372;8.166;2023-12-20T10:02:52;9.60;58.50
14101;DHT22;7127;49.372;8.166;2023-12-20T10:05:27;9.70;58.60
14101;DHT22;7127;49.372;8.166;2023-12-20T10:07:54;9.70;58.60
14101;DHT22;7127;49.372;8.166;2023-12-20T10:10:20;9.70;58.60
14101;DHT22;7127;49.372;8.166;2023-12-20T10:13:02;9.80;59.10
14101;DHT22;7127;49.372;8.166;2023-12-20T10:15:29;9.90;58.50
14101;DHT22;7127;49.372;8.166;2023-12-20T10:17:56;9.90;58.50
14101;DHT22;7127;49.372;8.166;2023-12-20T10:20:24;9.90;58.90
14101;DHT22;7127;49.372;8.166;2023-12-20T10:22:52;10.00;57.40
14101;DHT22;7127;49.372;8.166;2023-12-20T10:25:20;10.00;57.30
14101;DHT22;7127;49.372;8.166;2023-12-20T10:27:46;10.00;57.30
14101;DHT22;7127;49.372;8.166;2023-12-20T10:30:14;10.00;57.20
14101;DHT22;7127;49.372;8.166;2023-12-20T10:32:40;10.10;57.40
14101;DHT22;7127;49.372;8.166;2023-12-20T10:35:08;10.10;57.20
14101;DHT22;7127;49.372;8.166;2023-12-20T10:37:37;10.20;57.40
14101;DHT22;7127;49.372;8.166;2023-12-20T10:40:05;10.20;57.50
14101;DHT22;7127;49.372;8.166;2023-12-20T10:42:32;10.20;57.50
14101;DHT22;7127;49.372;8.166;2023-12-20T10:45:00;10.30;57.70
14101;DHT22;7127;49.372;8.166;2023-12-20T10:47:28;10.50;57.80
14101;DHT22;7127;49.372;8.166;2023-12-20T10:49:59;10.40;57.60
14101;DHT22;7127;49.372;8.166;2023-12-20T10:52:28;10.70;57.60
14101;DHT22;7127;49.372;8.166;2023-12-20T10:54:57;10.50;57.60
14101;DHT22;7127;49.372;8.166;2023-12-20T10:57:25;10.80;58.50
14101;DHT22;7127;49.372;8.166;2023-12-20T10:59:54;10.70;57.90
14101;DHT22;7127;49.372;8.166;2023-12-20T11:02:22;10.70;57.70
14101;DHT22;7127;49.372;8.166;2023-12-20T11:04:53;10.90;57.70
14101;DHT22;7127;49.372;8.166;2023-12-20T11:07:25;10.90;57.50
14101;DHT22;7127;49.372;8.166;2023-12-20T11:10:00;11.00;57.50
14101;DHT22;7127;49.372;8.166;2023-12-20T11:12:37;11.00;57.30
14101;DHT22;7127;49.372;8.166;2023-12-20T11:15:06;11.10;57.30
14101;DHT22;7127;49.372;8.166;2023-12-20T11:17:34;11.10;57.30
14101;DHT22;7127;49.372;8.166;2023-12-20T11:20:08;11.20;57.30
14101;DHT22;7127;49.372;8.166;2023-12-20T11:22:37;11.20;57.00
14101;DHT22;7127;49.372;8.166;2023-12-20T11:25:09;11.30;57.10
14101;DHT22;7127;49.372;8.166;2023-12-20T11:27:40;11.30;57.10
14101;DHT22;7127;49.372;8.166;2023-12-20T11:30:08;11.30;56.70
14101;DHT22;7127;49.372;8.166;2023-12-20T11:32:36;11.40;56.80
14101;DHT22;7127;49.372;8.166;2023-12-20T11:35:17;11.40;56.20
14101;DHT22;7127;49.372;8.166;2023-12-20T11:37:45;11.40;55.50
14101;DHT22;7127;49.372;8.166;2023-12-20T11:40:16;11.40;56.20
14101;DHT22;7127;49.372;8.166;2023-12-20T11:42:44;11.40;55.80
14101;DHT22;7127;49.372;8.166;2023-12-20T11:45:13;11.40;56.10
14101;DHT22;7127;49.372;8.166;2023-12-20T11:47:42;11.50;56.30
14101;DHT22;7127;49.372;8.166;2023-12-20T11:50:09;11.40;56.10
14101;DHT22;7127;49.372;8.166;2023-12-20T11:52:35;11.70;56.30
14101;DHT22;7127;49.372;8.166;2023-12-20T11:55:02;11.50;55.80
14101;DHT22;7127;49.372;8.166;2023-12-20T11:57:31;11.50;55.60
14101;DHT22;7127;49.372;8.166;2023-12-20T11:59:58;11.50;55.70
14101;DHT22;7127;49.372;8.166;2023-12-20T12:02:25;11.50;55.60
14101;DHT22;7127;49.372;8.166;2023-12-20T12:04:52;11.60;55.80
14101;DHT22;7127;49.372;8.166;2023-12-20T12:07:19;11.40;55.20
14101;DHT22;7127;49.372;8.166;2023-12-20T12:09:46;11.30;55.20
14101;DHT22;7127;49.372;8.166;2023-12-20T12:12:13;11.40;55.50
14101;DHT22;7127;49.372;8.166;2023-12-20T12:14:42;11.40;55.40
14101;DHT22;7127;49.372;8.166;2023-12-20T12:17:11;11.50;55.70
14101;DHT22;7127;49.372;8.166;2023-12-20T12:19:39;11.50;55.50
14101;DHT22;7127;49.372;8.166;2023-12-20T12:22:06;11.60;55.60
14101;DHT22;7127;49.372;8.166;2023-12-20T12:24:35;11.50;55.30
14101;DHT22;7127;49.372;8.166;2023-12-20T12:27:03;11.50;55.10
14101;DHT22;7127;49.372;8.166;2023-12-20T12:29:30;11.40;54.70
14101;DHT22;7127;49.372;8.166;2023-12-20T12:31:58;11.40;54.90
14101;DHT22;7127;49.372;8.166;2023-12-20T12:34:27;11.40;55.00
14101;DHT22;7127;49.372;8.166;2023-12-20T12:36:54;11.40;55.00
14101;DHT22;7127;49.372;8.166;2023-12-20T12:39:21;11.60;55.40
14101;DHT22;7127;49.372;8.166;2023-12-20T12:41:49;11.50;55.20
14101;DHT22;7127;49.372;8.166;2023-12-20T12:44:16;11.40;54.90
14101;DHT22;7127;49.372;8.166;2023-12-20T12:46:43;11.40;55.30
14101;DHT22;7127;49.372;8.166;2023-12-20T12:49:12;11.40;55.40
14101;DHT22;7127;49.372;8.166;2023-12-20T12:51:38;11.50;55.40
14101;DHT22;7127;49.372;8.166;2023-12-20T12:54:05;11.50;55.00
14101;DHT22;7127;49.372;8.166;2023-12-20T12:56:33;11.50;54.90
14101;DHT22;7127;49.372;8.166;2023-12-20T12:58:59;11.50;55.00
14101;DHT22;7127;49.372;8.166;2023-12-20T13:01:26;11.50;55.10
14101;DHT22;7127;49.372;8.166;2023-12-20T13:03:53;11.40;54.40
14101;DHT22;7127;49.372;8.166;2023-12-20T13:06:21;11.40;54.80
14101;DHT22;7127;49.372;8.166;2023-12-20T13:08:49;11.50;54.80
14101;DHT22;7127;49.372;8.166;2023-12-20T13:11:15;11.40;54.80
14101;DHT22;7127;49.372;8.166;2023-12-20T13:13:42;11.50;55.00
14101;DHT22;7127;49.372;8.166;2023-12-20T13:16:09;11.50;54.80
14101;DHT22;7127;49.372;8.166;2023-12-20T13:18:36;11.50;54.80
14101;DHT22;7127;49.372;8.166;2023-12-20T13:21:03;11.40;54.60
14101;DHT22;7127;49.372;8.166;2023-12-20T13:23:31;11.50;55.30
14101;DHT22;7127;49.372;8.166;2023-12-20T13:25:58;11.40;54.60
14101;DHT22;7127;49.372;8.166;2023-12-20T13:28:25;11.40;54.00
14101;DHT22;7127;49.372;8.166;2023-12-20T13:30:52;11.30;54.10
14101;DHT22;7127;49.372;8.166;2023-12-20T13:33:18;11.30;54.30
14101;DHT22;7127;49.372;8.166;2023-12-20T13:35:45;11.30;54.40
14101;DHT22;7127;49.372;8.166;2023-12-20T13:38:12;11.20;54.30
14101;DHT22;7127;49.372;8.166;2023-12-20T13:40:40;11.30;54.40
14101;DHT22;7127;49.372;8.166;2023-12-20T13:43:08;11.20;54.50
14101;DHT22;7127;49.372;8.166;2023-12-20T13:45:36;11.10;54.50
14101;DHT22;7127;49.372;8.166;2023-12-20T13:48:03;11.10;54.40
14101;DHT22;7127;49.372;8.166;2023-12-20T13:50:30;11.10;54.50
14101;DHT22;7127;49.372;8.166;2023-12-20T13:52:56;11.10;54.50
14101;DHT22;7127;49.372;8.166;2023-12-20T13:55:23;11.00;54.50
14101;DHT22;7127;49.372;8.166;2023-12-20T13:57:54;11.10;54.50
14101;DHT22;7127;49.372;8.166;2023-12-20T14:00:21;11.00;54.60
14101;DHT22;7127;49.372;8.166;2023-12-20T14:02:47;11.00;54.80
14101;DHT22;7127;49.372;8.166;2023-12-20T14:05:15;11.00;54.70
14101;DHT22;7127;49.372;8.166;2023-12-20T14:07:43;11.00;54.70
14101;DHT22;7127;49.372;8.166;2023-12-20T14:10:11;11.00;54.30
14101;DHT22;7127;49.372;8.166;2023-12-20T14:12:38;11.00;54.70
14101;DHT22;7127;49.372;8.166;2023-12-20T14:15:07;11.00;54.60
14101;DHT22;7127;49.372;8.166;2023-12-20T14:17:36;11.00;54.70
14101;DHT22;7127;49.372;8.166;2023-12-20T14:20:04;11.00;54.80
14101;DHT22;7127;49.372;8.166;2023-12-20T14:22:32;10.90;54.60
14101;DHT22;7127;49.372;8.166;2023-12-20T14:24:59;10.90;54.70
14101;DHT22;7127;49.372;8.166;2023-12-20T14:27:26;10.80;54.50
14101;DHT22;7127;49.372;8.166;2023-12-20T14:29:53;11.00;54.70
14101;DHT22;7127;49.372;8.166;2023-12-20T14:32:21;11.00;54.80
14101;DHT22;7127;49.372;8.166;2023-12-20T14:34:48;11.00;54.70
14101;DHT22;7127;49.372;8.166;2023-12-20T14:37:15;10.90;54.70
14101;DHT22;7127;49.372;8.166;2023-12-20T14:39:43;11.00;54.80
14101;DHT22;7127;49.372;8.166;2023-12-20T14:42:10;10.90;54.40
14101;DHT22;7127;49.372;8.166;2023-12-20T14:44:39;11.00;54.60
14101;DHT22;7127;49.372;8.166;2023-12-20T14:47:06;11.00;54.50
14101;DHT22;7127;49.372;8.166;2023-12-20T14:49:34;10.90;54.40
14101;DHT22;7127;49.372;8.166;2023-12-20T14:52:03;11.00;54.50
14101;DHT22;7127;49.372;8.166;2023-12-20T14:54:30;11.10;54.50
14101;DHT22;7127;49.372;8.166;2023-12-20T14:56:57;11.00;54.60
14101;DHT22;7127;49.372;8.166;2023-12-20T14:59:24;11.00;54.50
14101;DHT22;7127;49.372;8.166;2023-12-20T15:01:51;10.90;54.20
14101;DHT22;7127;49.372;8.166;2023-12-20T15:04:18;11.10;54.50
14101;DHT22;7127;49.372;8.166;2023-12-20T15:06:52;10.90;54.50
14101;DHT22;7127;49.372;8.166;2023-12-20T15:09:19;10.90;54.60
14101;DHT22;7127;49.372;8.166;2023-12-20T15:11:46;10.90;54.60
14101;DHT22;7127;49.372;8.166;2023-12-20T15:14:12;10.90;54.70
14101;DHT22;7127;49.372;8.166;2023-12-20T15:16:43;10.90;54.70
14101;DHT22;7127;49.372;8.166;2023-12-20T15:19:10;10.90;54.50
14101;DHT22;7127;49.372;8.166;2023-12-20T15:21:37;10.90;54.60
14101;DHT22;7127;49.372;8.166;2023-12-20T15:24:08;10.90;54.60
14101;DHT22;7127;49.372;8.166;2023-12-20T15:26:40;10.90;54.80
14101;DHT22;7127;49.372;8.166;2023-12-20T15:29:07;10.80;54.80
14101;DHT22;7127;49.372;8.166;2023-12-20T15:31:35;10.80;54.80
14101;DHT22;7127;49.372;8.166;2023-12-20T15:34:03;10.90;54.80
14101;DHT22;7127;49.372;8.166;2023-12-20T15:36:29;10.80;54.80
14101;DHT22;7127;49.372;8.166;2023-12-20T15:38:56;10.80;54.90
14101;DHT22;7127;49.372;8.166;2023-12-20T15:41:24;10.90;55.10
14101;DHT22;7127;49.372;8.166;2023-12-20T15:43:51;10.80;54.90
14101;DHT22;7127;49.372;8.166;2023-12-20T15:46:18;10.90;55.10
14101;DHT22;7127;49.372;8.166;2023-12-20T15:48:45;10.90;55.00
14101;DHT22;7127;49.372;8.166;2023-12-20T15:51:11;10.90;55.20
14101;DHT22;7127;49.372;8.166;2023-12-20T15:53:38;11.00;55.30
14101;DHT22;7127;49.372;8.166;2023-12-20T15:56:06;10.90;55.20
14101;DHT22;7127;49.372;8.166;2023-12-20T15:58:34;10.90;55.20
14101;DHT22;7127;49.372;8.166;2023-12-20T16:01:01;11.00;55.20
14101;DHT22;7127;49.372;8.166;2023-12-20T16:03:27;11.00;55.30
14101;DHT22;7127;49.372;8.166;2023-12-20T16:05:54;10.90;55.10